sensor_id;sensor_type;location;lat;lon;timestamp;P1;durP1;ratioP1;P2;durP2;ratioP2
56343;SDS011;42245;42.058;24.700;2022-12-29T00:01:35;42.23;;;23.93;;
56343;SDS011;42245;42.058;24.700;2022-12-29T00:04:00;43.50;;;24.17;;
56343;SDS011;42245;42.058;24.700;2022-12-29T00:06:26;46.40;;;25.80;;
56343;SDS011;42245;42.058;24.700;2022-12-29T00:08:52;48.77;;;24.57;;
56343;SDS011;42245;42.058;24.700;2022-12-29T00:11:18;42.83;;;23.37;;
56343;SDS011;42245;42.058;24.700;2022-12-29T00:13:45;43.93;;;25.00;;
56343;SDS011;42245;42.058;24.700;2022-12-29T00:16:29;43.53;;;24.17;;
56343;SDS011;42245;42.058;24.700;2022-12-29T00:18:55;47.33;;;25.93;;
56343;SDS011;42245;42.058;24.700;2022-12-29T00:21:22;48.43;;;25.87;;
56343;SDS011;42245;42.058;24.700;2022-12-29T00:24:09;48.37;;;25.30;;
56343;SDS011;42245;42.058;24.700;2022-12-29T00:29:47;50.67;;;25.73;;
56343;SDS011;42245;42.058;24.700;2022-12-29T00:32:31;51.93;;;27.23;;
56343;SDS011;42245;42.058;24.700;2022-12-29T00:35:22;45.43;;;25.63;;
56343;SDS011;42245;42.058;24.700;2022-12-29T00:37:59;44.93;;;24.87;;
56343;SDS011;42245;42.058;24.700;2022-12-29T00:40:47;44.00;;;24.20;;
56343;SDS011;42245;42.058;24.700;2022-12-29T00:43:31;47.50;;;24.93;;
56343;SDS011;42245;42.058;24.700;2022-12-29T00:46:15;46.97;;;24.97;;
56343;SDS011;42245;42.058;24.700;2022-12-29T00:48:40;44.20;;;25.07;;
56343;SDS011;42245;42.058;24.700;2022-12-29T00:51:24;48.63;;;25.63;;
56343;SDS011;42245;42.058;24.700;2022-12-29T00:53:49;46.73;;;24.73;;
56343;SDS011;42245;42.058;24.700;2022-12-29T00:56:15;43.50;;;24.47;;
56343;SDS011;42245;42.058;24.700;2022-12-29T00:58:40;47.87;;;24.70;;
56343;SDS011;42245;42.058;24.700;2022-12-29T01:01:06;46.30;;;24.70;;
56343;SDS011;42245;42.058;24.700;2022-12-29T01:03:33;45.80;;;24.33;;
56343;SDS011;42245;42.058;24.700;2022-12-29T01:06:00;45.60;;;23.77;;
56343;SDS011;42245;42.058;24.700;2022-12-29T01:08:29;44.33;;;22.70;;
56343;SDS011;42245;42.058;24.700;2022-12-29T01:11:01;40.17;;;22.13;;
56343;SDS011;42245;42.058;24.700;2022-12-29T01:13:28;42.27;;;22.30;;
56343;SDS011;42245;42.058;24.700;2022-12-29T01:15:54;41.97;;;22.87;;
56343;SDS011;42245;42.058;24.700;2022-12-29T01:18:20;36.87;;;21.57;;
56343;SDS011;42245;42.058;24.700;2022-12-29T01:20:46;38.33;;;21.23;;
56343;SDS011;42245;42.058;24.700;2022-12-29T01:23:11;37.50;;;21.40;;
56343;SDS011;42245;42.058;24.700;2022-12-29T01:25:37;36.33;;;21.00;;
56343;SDS011;42245;42.058;24.700;2022-12-29T01:28:02;39.10;;;21.97;;
56343;SDS011;42245;42.058;24.700;2022-12-29T01:30:28;41.63;;;23.30;;
56343;SDS011;42245;42.058;24.700;2022-12-29T01:32:53;34.40;;;20.80;;
56343;SDS011;42245;42.058;24.700;2022-12-29T01:35:18;38.73;;;20.77;;
56343;SDS011;42245;42.058;24.700;2022-12-29T01:37:44;43.83;;;21.97;;
56343;SDS011;42245;42.058;24.700;2022-12-29T01:40:09;38.50;;;21.60;;
56343;SDS011;42245;42.058;24.700;2022-12-29T01:42:35;40.17;;;22.27;;
56343;SDS011;42245;42.058;24.700;2022-12-29T01:45:10;40.47;;;22.27;;
56343;SDS011;42245;42.058;24.700;2022-12-29T01:50:13;41.40;;;22.60;;
56343;SDS011;42245;42.058;24.700;2022-12-29T01:52:43;41.47;;;23.87;;
56343;SDS011;42245;42.058;24.700;2022-12-29T01:55:14;44.23;;;22.47;;
56343;SDS011;42245;42.058;24.700;2022-12-29T01:57:40;38.23;;;22.60;;
56343;SDS011;42245;42.058;24.700;2022-12-29T02:00:10;39.27;;;22.63;;
56343;SDS011;42245;42.058;24.700;2022-12-29T02:02:38;39.57;;;22.17;;
56343;SDS011;42245;42.058;24.700;2022-12-29T02:05:07;39.00;;;22.23;;
56343;SDS011;42245;42.058;24.700;2022-12-29T02:07:35;43.17;;;23.13;;
56343;SDS011;42245;42.058;24.700;2022-12-29T02:10:02;44.17;;;23.60;;
56343;SDS011;42245;42.058;24.700;2022-12-29T02:12:28;42.57;;;23.10;;
56343;SDS011;42245;42.058;24.700;2022-12-29T02:14:55;44.83;;;23.07;;
56343;SDS011;42245;42.058;24.700;2022-12-29T02:17:45;43.33;;;23.00;;
56343;SDS011;42245;42.058;24.700;2022-12-29T02:29:03;41.57;;;22.30;;
56343;SDS011;42245;42.058;24.700;2022-12-29T02:31:46;44.63;;;22.33;;
56343;SDS011;42245;42.058;24.700;2022-12-29T02:39:49;44.90;;;22.93;;
56343;SDS011;42245;42.058;24.700;2022-12-29T02:45:06;42.57;;;22.87;;
56343;SDS011;42245;42.058;24.700;2022-12-29T02:47:37;46.73;;;24.23;;
56343;SDS011;42245;42.058;24.700;2022-12-29T02:52:51;45.53;;;23.73;;
56343;SDS011;42245;42.058;24.700;2022-12-29T02:55:20;49.27;;;24.30;;
56343;SDS011;42245;42.058;24.700;2022-12-29T02:57:45;48.33;;;24.27;;
56343;SDS011;42245;42.058;24.700;2022-12-29T03:00:12;48.03;;;23.53;;
56343;SDS011;42245;42.058;24.700;2022-12-29T03:10:48;45.97;;;23.77;;
56343;SDS011;42245;42.058;24.700;2022-12-29T03:16:36;46.70;;;24.00;;
56343;SDS011;42245;42.058;24.700;2022-12-29T03:19:08;46.97;;;23.73;;
56343;SDS011;42245;42.058;24.700;2022-12-29T03:21:40;53.33;;;24.50;;
56343;SDS011;42245;42.058;24.700;2022-12-29T03:24:27;48.47;;;23.90;;
56343;SDS011;42245;42.058;24.700;2022-12-29T03:26:55;45.30;;;23.40;;
56343;SDS011;42245;42.058;24.700;2022-12-29T03:29:23;47.87;;;23.70;;
56343;SDS011;42245;42.058;24.700;2022-12-29T03:31:49;49.13;;;24.30;;
56343;SDS011;42245;42.058;24.700;2022-12-29T03:34:17;46.10;;;24.17;;
56343;SDS011;42245;42.058;24.700;2022-12-29T03:36:44;50.93;;;24.80;;
56343;SDS011;42245;42.058;24.700;2022-12-29T03:39:14;46.10;;;23.50;;
56343;SDS011;42245;42.058;24.700;2022-12-29T03:41:40;46.07;;;23.73;;
56343;SDS011;42245;42.058;24.700;2022-12-29T03:44:08;48.40;;;24.50;;
56343;SDS011;42245;42.058;24.700;2022-12-29T03:46:33;50.00;;;23.80;;
56343;SDS011;42245;42.058;24.700;2022-12-29T03:48:59;48.57;;;23.37;;
56343;SDS011;42245;42.058;24.700;2022-12-29T03:51:24;48.90;;;23.60;;
56343;SDS011;42245;42.058;24.700;2022-12-29T03:53:50;53.17;;;24.10;;
56343;SDS011;42245;42.058;24.700;2022-12-29T03:56:15;47.27;;;24.00;;
56343;SDS011;42245;42.058;24.700;2022-12-29T03:58:41;45.83;;;23.60;;
56343;SDS011;42245;42.058;24.700;2022-12-29T04:01:06;49.40;;;23.93;;
56343;SDS011;42245;42.058;24.700;2022-12-29T04:03:31;48.97;;;24.07;;
56343;SDS011;42245;42.058;24.700;2022-12-29T04:05:57;53.27;;;24.67;;
56343;SDS011;42245;42.058;24.700;2022-12-29T04:08:22;51.43;;;26.53;;
56343;SDS011;42245;42.058;24.700;2022-12-29T04:10:48;48.67;;;24.43;;
56343;SDS011;42245;42.058;24.700;2022-12-29T04:13:14;47.37;;;23.17;;
56343;SDS011;42245;42.058;24.700;2022-12-29T04:15:40;46.73;;;24.10;;
56343;SDS011;42245;42.058;24.700;2022-12-29T04:18:07;50.87;;;25.43;;
56343;SDS011;42245;42.058;24.700;2022-12-29T04:20:32;49.50;;;23.70;;
56343;SDS011;42245;42.058;24.700;2022-12-29T04:23:16;52.43;;;25.10;;
56343;SDS011;42245;42.058;24.700;2022-12-29T04:25:44;48.40;;;24.60;;
56343;SDS011;42245;42.058;24.700;2022-12-29T04:28:10;44.67;;;23.83;;
56343;SDS011;42245;42.058;24.700;2022-12-29T04:30:35;50.53;;;24.37;;
56343;SDS011;42245;42.058;24.700;2022-12-29T04:33:01;50.43;;;25.00;;
56343;SDS011;42245;42.058;24.700;2022-12-29T04:35:26;50.60;;;25.17;;
56343;SDS011;42245;42.058;24.700;2022-12-29T04:37:51;45.10;;;22.87;;
56343;SDS011;42245;42.058;24.700;2022-12-29T04:40:17;48.57;;;23.90;;
56343;SDS011;42245;42.058;24.700;2022-12-29T04:42:42;46.77;;;22.90;;
56343;SDS011;42245;42.058;24.700;2022-12-29T04:45:08;51.10;;;24.37;;
56343;SDS011;42245;42.058;24.700;2022-12-29T04:47:33;47.13;;;23.77;;
56343;SDS011;42245;42.058;24.700;2022-12-29T04:49:59;49.17;;;24.67;;
56343;SDS011;42245;42.058;24.700;2022-12-29T04:52:24;47.07;;;23.80;;
56343;SDS011;42245;42.058;24.700;2022-12-29T04:54:49;51.13;;;24.60;;
56343;SDS011;42245;42.058;24.700;2022-12-29T04:57:15;46.40;;;23.10;;
56343;SDS011;42245;42.058;24.700;2022-12-29T04:59:40;50.60;;;25.13;;
56343;SDS011;42245;42.058;24.700;2022-12-29T05:02:05;51.33;;;24.80;;
56343;SDS011;42245;42.058;24.700;2022-12-29T05:04:31;47.87;;;23.87;;
56343;SDS011;42245;42.058;24.700;2022-12-29T05:06:56;47.03;;;24.17;;
56343;SDS011;42245;42.058;24.700;2022-12-29T05:09:21;49.63;;;25.20;;
56343;SDS011;42245;42.058;24.700;2022-12-29T05:11:48;45.70;;;23.77;;
56343;SDS011;42245;42.058;24.700;2022-12-29T05:14:14;43.10;;;22.60;;
56343;SDS011;42245;42.058;24.700;2022-12-29T05:16:39;43.90;;;22.77;;
56343;SDS011;42245;42.058;24.700;2022-12-29T05:19:04;45.77;;;23.67;;
56343;SDS011;42245;42.058;24.700;2022-12-29T05:21:30;48.13;;;24.20;;
56343;SDS011;42245;42.058;24.700;2022-12-29T05:23:55;47.60;;;22.97;;
56343;SDS011;42245;42.058;24.700;2022-12-29T05:26:20;47.00;;;23.70;;
56343;SDS011;42245;42.058;24.700;2022-12-29T05:28:46;48.60;;;22.10;;
56343;SDS011;42245;42.058;24.700;2022-12-29T05:31:11;45.63;;;22.23;;
56343;SDS011;42245;42.058;24.700;2022-12-29T05:33:37;40.77;;;21.53;;
56343;SDS011;42245;42.058;24.700;2022-12-29T05:36:05;44.03;;;22.00;;
56343;SDS011;42245;42.058;24.700;2022-12-29T05:38:32;43.17;;;22.50;;
56343;SDS011;42245;42.058;24.700;2022-12-29T05:40:57;40.73;;;20.97;;
56343;SDS011;42245;42.058;24.700;2022-12-29T05:43:23;48.37;;;22.00;;
56343;SDS011;42245;42.058;24.700;2022-12-29T05:45:48;41.30;;;21.17;;
56343;SDS011;42245;42.058;24.700;2022-12-29T05:48:14;44.80;;;22.23;;
56343;SDS011;42245;42.058;24.700;2022-12-29T05:50:40;47.47;;;22.53;;
56343;SDS011;42245;42.058;24.700;2022-12-29T05:53:05;44.33;;;21.73;;
56343;SDS011;42245;42.058;24.700;2022-12-29T05:55:31;44.20;;;22.27;;
56343;SDS011;42245;42.058;24.700;2022-12-29T05:57:56;39.17;;;20.10;;
56343;SDS011;42245;42.058;24.700;2022-12-29T06:00:22;43.07;;;20.63;;
56343;SDS011;42245;42.058;24.700;2022-12-29T06:02:47;45.63;;;21.77;;
56343;SDS011;42245;42.058;24.700;2022-12-29T06:05:12;41.83;;;21.20;;
56343;SDS011;42245;42.058;24.700;2022-12-29T06:07:38;45.73;;;22.13;;
56343;SDS011;42245;42.058;24.700;2022-12-29T06:10:04;38.37;;;20.03;;
56343;SDS011;42245;42.058;24.700;2022-12-29T06:12:30;46.70;;;22.27;;
56343;SDS011;42245;42.058;24.700;2022-12-29T06:14:55;40.57;;;20.93;;
56343;SDS011;42245;42.058;24.700;2022-12-29T06:17:21;39.73;;;20.80;;
56343;SDS011;42245;42.058;24.700;2022-12-29T06:19:46;43.87;;;21.83;;
56343;SDS011;42245;42.058;24.700;2022-12-29T06:22:12;42.47;;;20.67;;
56343;SDS011;42245;42.058;24.700;2022-12-29T06:24:37;38.73;;;20.40;;
56343;SDS011;42245;42.058;24.700;2022-12-29T06:27:03;42.47;;;20.87;;
56343;SDS011;42245;42.058;24.700;2022-12-29T06:29:28;40.93;;;20.70;;
56343;SDS011;42245;42.058;24.700;2022-12-29T06:31:54;48.13;;;21.50;;
56343;SDS011;42245;42.058;24.700;2022-12-29T06:34:22;43.80;;;21.73;;
56343;SDS011;42245;42.058;24.700;2022-12-29T06:36:48;44.00;;;20.63;;
56343;SDS011;42245;42.058;24.700;2022-12-29T06:39:14;40.60;;;20.13;;
56343;SDS011;42245;42.058;24.700;2022-12-29T06:41:39;41.37;;;20.17;;
56343;SDS011;42245;42.058;24.700;2022-12-29T06:44:04;38.20;;;20.10;;
56343;SDS011;42245;42.058;24.700;2022-12-29T06:46:30;35.00;;;18.57;;
56343;SDS011;42245;42.058;24.700;2022-12-29T06:48:55;39.10;;;19.90;;
56343;SDS011;42245;42.058;24.700;2022-12-29T06:51:21;40.10;;;19.23;;
56343;SDS011;42245;42.058;24.700;2022-12-29T06:53:46;37.73;;;19.87;;
56343;SDS011;42245;42.058;24.700;2022-12-29T06:56:11;42.80;;;21.07;;
56343;SDS011;42245;42.058;24.700;2022-12-29T06:58:37;40.60;;;20.33;;
56343;SDS011;42245;42.058;24.700;2022-12-29T07:01:02;39.97;;;19.57;;
56343;SDS011;42245;42.058;24.700;2022-12-29T07:03:28;36.50;;;19.47;;
56343;SDS011;42245;42.058;24.700;2022-12-29T07:05:53;41.73;;;19.83;;
56343;SDS011;42245;42.058;24.700;2022-12-29T07:08:19;39.63;;;21.50;;
56343;SDS011;42245;42.058;24.700;2022-12-29T07:10:45;41.47;;;21.03;;
56343;SDS011;42245;42.058;24.700;2022-12-29T07:13:10;44.00;;;21.93;;
56343;SDS011;42245;42.058;24.700;2022-12-29T07:15:36;45.03;;;24.77;;
56343;SDS011;42245;42.058;24.700;2022-12-29T07:18:02;44.23;;;21.47;;
56343;SDS011;42245;42.058;24.700;2022-12-29T07:20:28;40.57;;;20.57;;
56343;SDS011;42245;42.058;24.700;2022-12-29T07:22:54;41.73;;;21.07;;
56343;SDS011;42245;42.058;24.700;2022-12-29T07:25:19;38.30;;;21.13;;
56343;SDS011;42245;42.058;24.700;2022-12-29T07:27:45;40.37;;;20.70;;
56343;SDS011;42245;42.058;24.700;2022-12-29T07:30:10;52.93;;;25.33;;
56343;SDS011;42245;42.058;24.700;2022-12-29T07:32:37;53.60;;;25.03;;
56343;SDS011;42245;42.058;24.700;2022-12-29T07:35:03;59.13;;;26.93;;
56343;SDS011;42245;42.058;24.700;2022-12-29T07:37:28;45.90;;;23.17;;
56343;SDS011;42245;42.058;24.700;2022-12-29T07:39:54;45.60;;;24.93;;
56343;SDS011;42245;42.058;24.700;2022-12-29T07:42:19;42.60;;;22.20;;
56343;SDS011;42245;42.058;24.700;2022-12-29T07:44:45;44.40;;;23.17;;
56343;SDS011;42245;42.058;24.700;2022-12-29T07:47:10;47.73;;;24.40;;
56343;SDS011;42245;42.058;24.700;2022-12-29T07:49:35;43.80;;;26.10;;
56343;SDS011;42245;42.058;24.700;2022-12-29T07:52:01;39.87;;;21.30;;
56343;SDS011;42245;42.058;24.700;2022-12-29T07:54:26;40.80;;;21.43;;
56343;SDS011;42245;42.058;24.700;2022-12-29T07:56:51;40.73;;;22.07;;
56343;SDS011;42245;42.058;24.700;2022-12-29T07:59:17;44.07;;;24.33;;
56343;SDS011;42245;42.058;24.700;2022-12-29T08:01:43;53.77;;;28.63;;
56343;SDS011;42245;42.058;24.700;2022-12-29T08:04:08;55.67;;;28.93;;
56343;SDS011;42245;42.058;24.700;2022-12-29T08:06:34;55.43;;;28.93;;
56343;SDS011;42245;42.058;24.700;2022-12-29T08:08:59;40.70;;;23.57;;
56343;SDS011;42245;42.058;24.700;2022-12-29T08:11:26;40.67;;;23.37;;
56343;SDS011;42245;42.058;24.700;2022-12-29T08:13:51;46.67;;;25.80;;
56343;SDS011;42245;42.058;24.700;2022-12-29T08:16:17;41.60;;;23.60;;
56343;SDS011;42245;42.058;24.700;2022-12-29T08:18:42;37.00;;;22.20;;
56343;SDS011;42245;42.058;24.700;2022-12-29T08:21:07;38.33;;;21.53;;
56343;SDS011;42245;42.058;24.700;2022-12-29T08:23:33;40.72;;;24.20;;
56343;SDS011;42245;42.058;24.700;2022-12-29T08:25:58;42.58;;;25.10;;
56343;SDS011;42245;42.058;24.700;2022-12-29T08:28:28;39.15;;;23.30;;
56343;SDS011;42245;42.058;24.700;2022-12-29T08:30:54;36.25;;;23.00;;
56343;SDS011;42245;42.058;24.700;2022-12-29T08:33:22;37.45;;;21.00;;
56343;SDS011;42245;42.058;24.700;2022-12-29T08:35:47;36.38;;;22.25;;
56343;SDS011;42245;42.058;24.700;2022-12-29T08:38:13;34.50;;;21.58;;
56343;SDS011;42245;42.058;24.700;2022-12-29T08:40:38;32.22;;;21.23;;
56343;SDS011;42245;42.058;24.700;2022-12-29T08:43:03;39.20;;;23.13;;
56343;SDS011;42245;42.058;24.700;2022-12-29T08:45:29;35.95;;;22.92;;
56343;SDS011;42245;42.058;24.700;2022-12-29T08:47:54;42.90;;;23.95;;
56343;SDS011;42245;42.058;24.700;2022-12-29T08:50:19;46.95;;;24.75;;
56343;SDS011;42245;42.058;24.700;2022-12-29T08:52:45;40.45;;;26.83;;
56343;SDS011;42245;42.058;24.700;2022-12-29T08:55:10;39.65;;;26.77;;
56343;SDS011;42245;42.058;24.700;2022-12-29T08:57:36;41.70;;;26.20;;
56343;SDS011;42245;42.058;24.700;2022-12-29T09:00:02;53.20;;;34.10;;
56343;SDS011;42245;42.058;24.700;2022-12-29T09:02:28;41.03;;;25.30;;
56343;SDS011;42245;42.058;24.700;2022-12-29T09:04:54;42.58;;;27.83;;
56343;SDS011;42245;42.058;24.700;2022-12-29T09:07:19;48.30;;;29.05;;
56343;SDS011;42245;42.058;24.700;2022-12-29T09:09:44;49.17;;;32.25;;
56343;SDS011;42245;42.058;24.700;2022-12-29T09:12:10;45.58;;;27.98;;
56343;SDS011;42245;42.058;24.700;2022-12-29T09:14:35;49.47;;;28.00;;
56343;SDS011;42245;42.058;24.700;2022-12-29T09:17:01;60.85;;;43.35;;
56343;SDS011;42245;42.058;24.700;2022-12-29T09:19:45;36.08;;;24.38;;
56343;SDS011;42245;42.058;24.700;2022-12-29T09:22:10;30.50;;;21.60;;
56343;SDS011;42245;42.058;24.700;2022-12-29T09:24:35;32.20;;;21.92;;
56343;SDS011;42245;42.058;24.700;2022-12-29T09:27:01;33.97;;;23.23;;
56343;SDS011;42245;42.058;24.700;2022-12-29T09:29:26;38.65;;;26.38;;
56343;SDS011;42245;42.058;24.700;2022-12-29T09:31:51;36.75;;;24.67;;
56343;SDS011;42245;42.058;24.700;2022-12-29T09:34:17;29.48;;;18.63;;
56343;SDS011;42245;42.058;24.700;2022-12-29T09:36:42;30.80;;;20.05;;
56343;SDS011;42245;42.058;24.700;2022-12-29T09:39:08;38.10;;;25.88;;
56343;SDS011;42245;42.058;24.700;2022-12-29T09:41:38;42.05;;;26.20;;
56343;SDS011;42245;42.058;24.700;2022-12-29T09:44:23;44.70;;;28.40;;
56343;SDS011;42245;42.058;24.700;2022-12-29T09:46:50;34.00;;;22.45;;
56343;SDS011;42245;42.058;24.700;2022-12-29T09:49:20;37.88;;;22.92;;
56343;SDS011;42245;42.058;24.700;2022-12-29T09:51:57;38.90;;;25.50;;
56343;SDS011;42245;42.058;24.700;2022-12-29T09:57:10;49.50;;;29.13;;
56343;SDS011;42245;42.058;24.700;2022-12-29T09:59:49;36.60;;;24.38;;
56343;SDS011;42245;42.058;24.700;2022-12-29T10:02:20;34.55;;;23.75;;
56343;SDS011;42245;42.058;24.700;2022-12-29T10:04:49;41.10;;;23.75;;
56343;SDS011;42245;42.058;24.700;2022-12-29T10:15:29;38.17;;;24.38;;
56343;SDS011;42245;42.058;24.700;2022-12-29T10:25:45;42.42;;;26.95;;
56343;SDS011;42245;42.058;24.700;2022-12-29T10:31:08;45.72;;;26.48;;
56343;SDS011;42245;42.058;24.700;2022-12-29T10:33:40;41.92;;;24.80;;
56343;SDS011;42245;42.058;24.700;2022-12-29T10:36:15;36.35;;;22.70;;
56343;SDS011;42245;42.058;24.700;2022-12-29T10:38:45;37.88;;;23.77;;
56343;SDS011;42245;42.058;24.700;2022-12-29T10:41:36;38.33;;;22.90;;
56343;SDS011;42245;42.058;24.700;2022-12-29T10:44:03;32.63;;;21.23;;
56343;SDS011;42245;42.058;24.700;2022-12-29T10:46:30;34.28;;;20.40;;
56343;SDS011;42245;42.058;24.700;2022-12-29T10:48:58;36.00;;;22.83;;
56343;SDS011;42245;42.058;24.700;2022-12-29T10:51:28;34.40;;;21.98;;
56343;SDS011;42245;42.058;24.700;2022-12-29T10:54:01;34.63;;;21.70;;
56343;SDS011;42245;42.058;24.700;2022-12-29T10:56:34;39.00;;;23.30;;
56343;SDS011;42245;42.058;24.700;2022-12-29T10:59:03;39.00;;;24.33;;
56343;SDS011;42245;42.058;24.700;2022-12-29T11:01:45;35.80;;;23.40;;
56343;SDS011;42245;42.058;24.700;2022-12-29T11:04:22;34.45;;;21.90;;
56343;SDS011;42245;42.058;24.700;2022-12-29T11:07:15;34.75;;;22.88;;
56343;SDS011;42245;42.058;24.700;2022-12-29T11:09:42;41.92;;;26.10;;
56343;SDS011;42245;42.058;24.700;2022-12-29T11:14:46;38.42;;;24.33;;
56343;SDS011;42245;42.058;24.700;2022-12-29T11:17:14;40.88;;;25.63;;
56343;SDS011;42245;42.058;24.700;2022-12-29T11:19:41;47.75;;;28.95;;
56343;SDS011;42245;42.058;24.700;2022-12-29T11:22:26;42.05;;;25.90;;
56343;SDS011;42245;42.058;24.700;2022-12-29T11:24:53;43.78;;;25.77;;
56343;SDS011;42245;42.058;24.700;2022-12-29T11:27:23;42.83;;;26.77;;
56343;SDS011;42245;42.058;24.700;2022-12-29T11:29:50;38.55;;;24.15;;
56343;SDS011;42245;42.058;24.700;2022-12-29T11:32:18;42.60;;;28.35;;
56343;SDS011;42245;42.058;24.700;2022-12-29T11:34:44;38.90;;;24.25;;
56343;SDS011;42245;42.058;24.700;2022-12-29T11:37:15;43.47;;;27.77;;
56343;SDS011;42245;42.058;24.700;2022-12-29T11:42:21;43.25;;;28.67;;
56343;SDS011;42245;42.058;24.700;2022-12-29T11:44:53;38.88;;;27.20;;
56343;SDS011;42245;42.058;24.700;2022-12-29T11:47:29;43.00;;;25.83;;
56343;SDS011;42245;42.058;24.700;2022-12-29T11:50:00;46.00;;;26.48;;
56343;SDS011;42245;42.058;24.700;2022-12-29T11:52:31;41.05;;;25.63;;
56343;SDS011;42245;42.058;24.700;2022-12-29T11:55:00;40.97;;;26.80;;
56343;SDS011;42245;42.058;24.700;2022-12-29T11:57:27;44.65;;;26.83;;
56343;SDS011;42245;42.058;24.700;2022-12-29T11:59:53;41.15;;;27.17;;
56343;SDS011;42245;42.058;24.700;2022-12-29T12:04:48;47.00;;;29.25;;
56343;SDS011;42245;42.058;24.700;2022-12-29T12:07:37;43.63;;;26.70;;
56343;SDS011;42245;42.058;24.700;2022-12-29T12:10:05;49.58;;;31.15;;
56343;SDS011;42245;42.058;24.700;2022-12-29T12:21:10;45.08;;;26.50;;
56343;SDS011;42245;42.058;24.700;2022-12-29T12:26:12;41.55;;;26.35;;
56343;SDS011;42245;42.058;24.700;2022-12-29T12:31:44;47.45;;;28.20;;
56343;SDS011;42245;42.058;24.700;2022-12-29T12:34:35;41.88;;;25.13;;
56343;SDS011;42245;42.058;24.700;2022-12-29T12:42:21;40.17;;;25.15;;
56343;SDS011;42245;42.058;24.700;2022-12-29T12:48:06;50.22;;;31.58;;
56343;SDS011;42245;42.058;24.700;2022-12-29T12:58:49;49.08;;;28.85;;
56343;SDS011;42245;42.058;24.700;2022-12-29T13:01:37;47.88;;;26.52;;
56343;SDS011;42245;42.058;24.700;2022-12-29T13:04:18;42.97;;;26.55;;
56343;SDS011;42245;42.058;24.700;2022-12-29T13:15:52;46.83;;;28.20;;
56343;SDS011;42245;42.058;24.700;2022-12-29T13:21:11;47.60;;;27.20;;
56343;SDS011;42245;42.058;24.700;2022-12-29T13:26:25;51.20;;;29.75;;
56343;SDS011;42245;42.058;24.700;2022-12-29T13:31:30;44.78;;;27.55;;
56343;SDS011;42245;42.058;24.700;2022-12-29T13:34:04;49.75;;;27.60;;
56343;SDS011;42245;42.058;24.700;2022-12-29T13:36:46;46.28;;;27.20;;
56343;SDS011;42245;42.058;24.700;2022-12-29T13:39:34;49.63;;;28.38;;
56343;SDS011;42245;42.058;24.700;2022-12-29T13:42:02;49.47;;;29.10;;
56343;SDS011;42245;42.058;24.700;2022-12-29T13:44:43;51.25;;;28.15;;
56343;SDS011;42245;42.058;24.700;2022-12-29T13:49:39;46.85;;;27.77;;
56343;SDS011;42245;42.058;24.700;2022-12-29T13:52:09;50.03;;;27.95;;
56343;SDS011;42245;42.058;24.700;2022-12-29T13:55:07;54.33;;;27.05;;
56343;SDS011;42245;42.058;24.700;2022-12-29T13:57:42;47.72;;;27.15;;
56343;SDS011;42245;42.058;24.700;2022-12-29T14:00:15;41.22;;;24.83;;
56343;SDS011;42245;42.058;24.700;2022-12-29T14:07:45;46.28;;;25.90;;
56343;SDS011;42245;42.058;24.700;2022-12-29T14:13:10;49.60;;;23.92;;
56343;SDS011;42245;42.058;24.700;2022-12-29T14:15:38;44.30;;;24.60;;
56343;SDS011;42245;42.058;24.700;2022-12-29T14:20:46;42.72;;;24.27;;
56343;SDS011;42245;42.058;24.700;2022-12-29T14:25:58;40.58;;;23.75;;
56343;SDS011;42245;42.058;24.700;2022-12-29T14:28:29;41.97;;;23.40;;
56343;SDS011;42245;42.058;24.700;2022-12-29T14:31:02;39.08;;;23.25;;
56343;SDS011;42245;42.058;24.700;2022-12-29T14:33:30;51.97;;;24.58;;
56343;SDS011;42245;42.058;24.700;2022-12-29T14:35:56;47.22;;;24.67;;
56343;SDS011;42245;42.058;24.700;2022-12-29T14:38:24;39.80;;;24.65;;
56343;SDS011;42245;42.058;24.700;2022-12-29T14:40:51;49.38;;;25.13;;
56343;SDS011;42245;42.058;24.700;2022-12-29T14:43:19;47.33;;;25.20;;
56343;SDS011;42245;42.058;24.700;2022-12-29T14:45:51;45.60;;;25.65;;
56343;SDS011;42245;42.058;24.700;2022-12-29T14:48:29;46.60;;;24.45;;
56343;SDS011;42245;42.058;24.700;2022-12-29T14:50:58;43.00;;;25.02;;
56343;SDS011;42245;42.058;24.700;2022-12-29T14:56:15;43.40;;;24.13;;
56343;SDS011;42245;42.058;24.700;2022-12-29T14:58:52;43.65;;;24.52;;
56343;SDS011;42245;42.058;24.700;2022-12-29T15:01:22;45.92;;;24.70;;
56343;SDS011;42245;42.058;24.700;2022-12-29T15:03:56;46.07;;;24.57;;
56343;SDS011;42245;42.058;24.700;2022-12-29T15:06:23;46.33;;;23.23;;
56343;SDS011;42245;42.058;24.700;2022-12-29T15:11:23;39.90;;;22.77;;
56343;SDS011;42245;42.058;24.700;2022-12-29T15:13:57;44.87;;;23.53;;
56343;SDS011;42245;42.058;24.700;2022-12-29T15:16:29;43.93;;;23.47;;
56343;SDS011;42245;42.058;24.700;2022-12-29T15:18:55;45.10;;;23.40;;
56343;SDS011;42245;42.058;24.700;2022-12-29T15:21:24;44.47;;;24.13;;
56343;SDS011;42245;42.058;24.700;2022-12-29T15:23:52;45.17;;;25.07;;
56343;SDS011;42245;42.058;24.700;2022-12-29T15:26:17;45.37;;;22.30;;
56343;SDS011;42245;42.058;24.700;2022-12-29T15:28:47;44.97;;;24.60;;
56343;SDS011;42245;42.058;24.700;2022-12-29T15:31:16;43.70;;;22.97;;
56343;SDS011;42245;42.058;24.700;2022-12-29T15:33:42;38.63;;;21.90;;
56343;SDS011;42245;42.058;24.700;2022-12-29T15:36:13;41.07;;;22.40;;
56343;SDS011;42245;42.058;24.700;2022-12-29T15:38:48;42.03;;;21.83;;
56343;SDS011;42245;42.058;24.700;2022-12-29T15:41:25;43.80;;;22.60;;
56343;SDS011;42245;42.058;24.700;2022-12-29T15:44:39;35.20;;;19.33;;
56343;SDS011;42245;42.058;24.700;2022-12-29T15:49:47;38.57;;;20.90;;
56343;SDS011;42245;42.058;24.700;2022-12-29T15:52:18;36.13;;;20.60;;
56343;SDS011;42245;42.058;24.700;2022-12-29T15:54:45;37.60;;;21.00;;
56343;SDS011;42245;42.058;24.700;2022-12-29T15:57:24;35.80;;;20.23;;
56343;SDS011;42245;42.058;24.700;2022-12-29T15:59:55;41.97;;;21.77;;
56343;SDS011;42245;42.058;24.700;2022-12-29T16:02:23;43.73;;;22.20;;
56343;SDS011;42245;42.058;24.700;2022-12-29T16:04:49;40.07;;;20.77;;
56343;SDS011;42245;42.058;24.700;2022-12-29T16:07:31;43.80;;;21.90;;
56343;SDS011;42245;42.058;24.700;2022-12-29T16:09:59;45.03;;;24.03;;
56343;SDS011;42245;42.058;24.700;2022-12-29T16:12:35;39.20;;;21.53;;
56343;SDS011;42245;42.058;24.700;2022-12-29T16:15:03;40.57;;;22.50;;
56343;SDS011;42245;42.058;24.700;2022-12-29T16:17:44;41.30;;;22.60;;
56343;SDS011;42245;42.058;24.700;2022-12-29T16:22:41;41.90;;;22.67;;
56343;SDS011;42245;42.058;24.700;2022-12-29T16:27:59;48.63;;;23.43;;
56343;SDS011;42245;42.058;24.700;2022-12-29T16:30:27;41.07;;;23.03;;
56343;SDS011;42245;42.058;24.700;2022-12-29T16:32:55;41.10;;;21.83;;
56343;SDS011;42245;42.058;24.700;2022-12-29T16:35:23;40.43;;;22.53;;
56343;SDS011;42245;42.058;24.700;2022-12-29T16:40:48;39.20;;;21.43;;
56343;SDS011;42245;42.058;24.700;2022-12-29T16:43:36;41.23;;;20.83;;
56343;SDS011;42245;42.058;24.700;2022-12-29T16:48:49;41.53;;;21.33;;